createdAt,value
2022-12-18T00:02:12.575Z,-7.50
2022-12-18T00:04:39.341Z,-7.50
2022-12-18T00:07:06.191Z,-7.50
2022-12-18T00:09:39.569Z,-7.50
2022-12-18T00:14:43.162Z,-7.50
2022-12-18T00:17:10.105Z,-7.50
2022-12-18T00:19:36.952Z,-7.40
2022-12-18T00:22:03.732Z,-7.50
2022-12-18T00:24:30.538Z,-7.40
2022-12-18T00:26:58.377Z,-7.40
2022-12-18T00:29:25.125Z,-7.50
2022-12-18T00:31:51.964Z,-7.50
2022-12-18T00:34:18.943Z,-7.40
2022-12-18T00:36:47.307Z,-7.50
2022-12-18T00:39:14.145Z,-7.40
2022-12-18T00:42:03.189Z,-7.50
2022-12-18T00:44:29.933Z,-7.50
2022-12-18T00:46:56.712Z,-7.50
2022-12-18T00:49:23.472Z,-7.40
2022-12-18T00:51:50.857Z,-7.40
2022-12-18T00:54:18.485Z,-7.40
2022-12-18T00:56:49.278Z,-7.30
2022-12-18T00:59:17.391Z,-7.30
2022-12-18T01:01:44.237Z,-7.30
2022-12-18T01:04:11.098Z,-7.30
2022-12-18T01:06:37.902Z,-7.30
2022-12-18T01:09:04.692Z,-7.30
2022-12-18T01:11:31.633Z,-7.40
2022-12-18T01:13:58.399Z,-7.40
2022-12-18T01:16:25.175Z,-7.40
2022-12-18T01:18:55.505Z,-7.40
2022-12-18T01:21:22.523Z,-7.40
2022-12-18T01:23:53.085Z,-7.30
2022-12-18T01:26:19.930Z,-7.30
2022-12-18T01:28:46.762Z,-7.30
2022-12-18T01:31:26.922Z,-7.30
2022-12-18T01:33:55.328Z,-7.30
2022-12-18T01:36:23.968Z,-7.40
2022-12-18T01:38:51.117Z,-7.40
2022-12-18T01:41:26.897Z,-7.40
2022-12-18T01:43:55.593Z,-7.30
2022-12-18T01:46:23.387Z,-7.40
2022-12-18T01:48:52.051Z,-7.40
2022-12-18T01:51:18.800Z,-7.40
2022-12-18T01:53:45.791Z,-7.40
2022-12-18T01:56:19.999Z,-9.40
2022-12-18T01:58:57.372Z,-7.40
2022-12-18T02:01:25.132Z,-7.40
2022-12-18T02:03:52.469Z,-7.40
2022-12-18T02:06:30.064Z,-7.50
2022-12-18T02:09:13.273Z,-7.40
2022-12-18T02:12:01.324Z,-7.50
2022-12-18T02:14:31.660Z,-7.50
2022-12-18T02:17:06.086Z,-7.50
2022-12-18T02:19:49.776Z,-7.50
2022-12-18T02:22:38.566Z,-7.50
2022-12-18T02:25:24.646Z,-7.50
2022-12-18T02:27:52.105Z,-7.50
2022-12-18T02:30:20.681Z,-7.50
2022-12-18T02:32:50.191Z,-5.90
2022-12-18T02:35:20.480Z,-7.50
2022-12-18T02:37:50.798Z,-7.50
2022-12-18T02:40:17.839Z,-7.50
2022-12-18T02:42:45.306Z,-7.50
2022-12-18T02:45:16.022Z,-7.50
2022-12-18T02:47:44.574Z,-7.50
2022-12-18T02:50:30.543Z,-7.50
2022-12-18T02:53:07.585Z,-7.50
2022-12-18T02:55:47.096Z,-7.50
2022-12-18T02:58:34.681Z,-7.50
2022-12-18T03:01:12.725Z,-7.50
2022-12-18T03:04:01.646Z,-7.50
2022-12-18T03:06:34.622Z,-7.60
2022-12-18T03:09:03.803Z,-7.70
2022-12-18T03:11:52.516Z,-7.60
2022-12-18T03:14:19.408Z,-7.60
2022-12-18T03:16:49.092Z,-7.60
2022-12-18T03:19:20.780Z,-7.60
2022-12-18T03:21:54.509Z,-7.60
2022-12-18T03:24:21.357Z,-7.60
2022-12-18T03:26:51.789Z,-7.60
2022-12-18T03:29:31.833Z,-7.80
2022-12-18T03:32:22.469Z,-7.60
2022-12-18T03:34:50.964Z,-7.60
2022-12-18T03:37:20.693Z,-7.70
2022-12-18T03:39:47.907Z,-7.70
2022-12-18T03:42:20.791Z,-7.70
2022-12-18T03:45:13.536Z,-7.70
2022-12-18T03:47:54.534Z,-7.70
2022-12-18T03:50:50.682Z,-7.70
2022-12-18T03:53:43.485Z,-7.70
2022-12-18T03:56:11.744Z,-7.70
2022-12-18T03:58:41.012Z,-7.70
2022-12-18T04:01:22.084Z,-7.70
2022-12-18T04:03:49.156Z,-7.70
2022-12-18T04:06:17.641Z,-7.70
2022-12-18T04:08:45.295Z,-7.70
2022-12-18T04:11:15.956Z,-7.70
2022-12-18T04:13:44.616Z,-7.70
2022-12-18T04:16:19.531Z,-7.60
2022-12-18T04:22:46.407Z,-7.60
2022-12-18T04:25:14.316Z,-7.60
2022-12-18T04:32:12.490Z,-7.60
2022-12-18T04:34:41.925Z,-7.60
2022-12-18T04:37:09.257Z,-7.60
2022-12-18T04:39:36.788Z,-7.70
2022-12-18T04:42:09.008Z,-7.60
2022-12-18T04:44:35.793Z,-7.50
2022-12-18T04:47:02.643Z,-7.60
2022-12-18T04:49:29.390Z,-7.60
2022-12-18T04:51:56.369Z,-7.60
2022-12-18T04:54:23.227Z,-7.60
2022-12-18T04:56:50.417Z,-7.70
2022-12-18T04:59:17.242Z,-7.70
2022-12-18T05:01:44.204Z,-7.70
2022-12-18T05:04:11.461Z,-7.70
2022-12-18T05:06:38.313Z,-7.70
2022-12-18T05:09:05.212Z,-7.70
2022-12-18T05:11:32.836Z,-7.80
2022-12-18T05:13:59.602Z,-7.80
2022-12-18T05:16:26.516Z,-7.80
2022-12-18T05:18:53.393Z,-7.80
2022-12-18T05:21:20.151Z,-7.80
2022-12-18T05:23:46.950Z,-7.80
2022-12-18T05:26:16.696Z,-7.80
2022-12-18T05:28:43.567Z,-7.80
2022-12-18T05:31:10.571Z,-7.80
2022-12-18T05:33:37.826Z,-7.80
2022-12-18T05:36:06.992Z,-7.70
2022-12-18T05:38:35.583Z,-7.70
2022-12-18T05:41:02.536Z,-7.80
2022-12-18T05:43:29.824Z,-7.70
2022-12-18T05:45:57.811Z,-7.70
2022-12-18T05:48:24.676Z,-7.70
2022-12-18T05:50:51.700Z,-7.70
2022-12-18T05:53:20.198Z,-7.70
2022-12-18T05:55:47.361Z,-7.70
2022-12-18T05:58:14.368Z,-7.70
2022-12-18T06:00:42.472Z,-7.60
2022-12-18T06:03:10.222Z,-7.60
2022-12-18T06:05:38.538Z,-7.60
2022-12-18T06:08:05.906Z,-7.60
2022-12-18T06:10:33.296Z,-7.60
2022-12-18T06:13:00.334Z,-7.60
2022-12-18T06:15:27.150Z,-7.70
2022-12-18T06:17:54.094Z,-7.60
2022-12-18T06:20:21.073Z,-7.70
2022-12-18T06:22:47.864Z,-7.70
2022-12-18T06:25:14.745Z,-7.60
2022-12-18T06:27:41.617Z,-4.80
2022-12-18T06:30:10.478Z,-7.60
2022-12-18T06:32:37.401Z,-7.50
2022-12-18T06:35:04.887Z,-5.30
2022-12-18T06:37:32.480Z,-7.40
2022-12-18T06:39:59.396Z,-7.40
2022-12-18T06:42:26.243Z,-7.40
2022-12-18T06:44:53.337Z,-7.40
2022-12-18T06:47:20.130Z,-7.40
2022-12-18T06:49:46.896Z,-7.50
2022-12-18T06:52:13.707Z,-7.50
2022-12-18T06:54:40.471Z,-6.50
2022-12-18T06:57:07.223Z,-7.50
2022-12-18T06:59:34.097Z,-7.50
2022-12-18T07:02:01.106Z,-7.40
2022-12-18T07:04:31.022Z,-7.40
2022-12-18T07:06:58.355Z,-7.40
2022-12-18T07:09:25.388Z,-7.40
2022-12-18T07:11:52.988Z,-7.40
2022-12-18T07:14:19.843Z,-7.40
2022-12-18T07:16:46.730Z,-7.20
2022-12-18T07:19:13.514Z,-7.50
2022-12-18T07:21:40.335Z,-7.50
2022-12-18T07:24:07.545Z,-7.50
2022-12-18T07:26:34.727Z,-7.50
2022-12-18T07:29:01.575Z,-7.50
2022-12-18T07:31:28.441Z,-7.50
2022-12-18T07:33:55.368Z,-7.50
2022-12-18T07:36:25.309Z,-7.50
2022-12-18T07:38:53.621Z,-7.50
2022-12-18T07:41:20.774Z,-7.50
2022-12-18T07:43:47.832Z,-6.70
2022-12-18T07:46:15.897Z,-7.60
2022-12-18T07:48:46.196Z,-7.50
2022-12-18T07:51:16.565Z,-7.60
2022-12-18T07:53:44.036Z,-7.50
2022-12-18T07:56:27.217Z,-7.50
2022-12-18T07:58:55.617Z,-7.20
2022-12-18T08:01:22.521Z,-7.60
2022-12-18T08:03:50.064Z,-7.60
2022-12-18T08:06:19.669Z,-7.70
2022-12-18T08:08:52.508Z,-7.70
2022-12-18T08:11:19.348Z,-7.70
2022-12-18T08:13:46.549Z,-7.80
2022-12-18T08:16:13.516Z,-7.80
2022-12-18T08:18:40.352Z,-7.80
2022-12-18T08:21:15.969Z,-7.80
2022-12-18T08:23:43.756Z,-7.80
2022-12-18T08:26:14.300Z,-7.90
2022-12-18T08:28:41.443Z,-7.90
2022-12-18T08:31:08.652Z,-7.90
2022-12-18T08:33:35.916Z,-7.90
2022-12-18T08:36:02.890Z,-7.90
2022-12-18T08:38:30.686Z,-7.90
2022-12-18T08:41:08.450Z,-7.90
2022-12-18T08:43:53.853Z,-8.00
2022-12-18T08:46:21.627Z,-7.90
2022-12-18T08:48:48.543Z,-7.80
2022-12-18T08:51:17.176Z,-7.70
2022-12-18T08:53:45.345Z,-7.30
2022-12-18T08:56:12.502Z,-7.10
2022-12-18T08:58:39.320Z,-6.70
2022-12-18T09:01:07.600Z,-6.30
2022-12-18T09:03:34.606Z,-6.10
2022-12-18T09:06:01.545Z,-5.70
2022-12-18T09:08:28.738Z,-5.30
2022-12-18T09:10:56.141Z,-4.80
2022-12-18T09:13:23.044Z,-4.40
2022-12-18T09:15:54.349Z,-4.10
2022-12-18T09:18:21.856Z,-3.70
2022-12-18T09:20:48.832Z,-3.30
2022-12-18T09:23:15.668Z,-3.10
2022-12-18T09:25:42.469Z,-2.90
2022-12-18T09:28:16.365Z,-2.70
2022-12-18T09:30:46.917Z,-2.50
2022-12-18T09:33:14.683Z,-2.40
2022-12-18T09:35:42.208Z,-2.30
2022-12-18T09:38:10.011Z,-2.20
2022-12-18T09:40:40.824Z,-2.10
2022-12-18T09:43:08.280Z,-1.90
2022-12-18T09:45:45.321Z,-1.80
2022-12-18T09:48:24.726Z,-1.70
2022-12-18T09:50:51.697Z,-1.60
2022-12-18T09:53:23.733Z,-1.50
2022-12-18T09:55:50.607Z,-1.40
2022-12-18T09:58:29.323Z,-1.30
2022-12-18T10:00:56.261Z,-1.20
2022-12-18T10:03:23.234Z,-1.20
2022-12-18T10:05:50.169Z,-1.10
2022-12-18T10:08:39.835Z,-1.00
2022-12-18T10:11:45.739Z,-1.00
2022-12-18T10:14:39.516Z,-0.90
2022-12-18T10:17:37.663Z,-0.90
2022-12-18T10:20:17.622Z,-0.80
2022-12-18T10:23:02.455Z,-0.80
2022-12-18T10:25:41.157Z,-0.70
2022-12-18T10:28:17.757Z,-0.60
2022-12-18T10:30:44.933Z,-0.60
2022-12-18T10:33:16.943Z,-0.60
2022-12-18T10:35:43.949Z,-0.50
2022-12-18T10:38:13.792Z,-0.40
2022-12-18T10:40:57.198Z,1.50
2022-12-18T10:43:31.648Z,-0.40
2022-12-18T10:46:19.290Z,-0.30
2022-12-18T10:48:49.491Z,-0.30
2022-12-18T10:51:27.291Z,-0.20
2022-12-18T10:54:00.609Z,-0.20
2022-12-18T10:56:29.082Z,0.40
2022-12-18T10:59:00.863Z,-0.10
2022-12-18T11:01:28.523Z,0.00
2022-12-18T11:04:02.657Z,0.00
2022-12-18T11:06:29.717Z,0.10
2022-12-18T11:09:13.291Z,0.10
2022-12-18T11:11:42.044Z,-1.40
2022-12-18T11:14:18.946Z,0.10
2022-12-18T11:17:24.954Z,0.10
2022-12-18T11:19:38.707Z,0.40
2022-12-18T11:22:39.435Z,0.10
2022-12-18T11:25:32.448Z,0.10
2022-12-18T11:28:02.395Z,0.10
2022-12-18T11:30:37.139Z,0.10
2022-12-18T11:33:22.634Z,0.10
2022-12-18T11:35:51.126Z,0.10
2022-12-18T11:38:30.723Z,0.10
2022-12-18T11:40:57.693Z,0.10
2022-12-18T11:43:46.641Z,0.10
2022-12-18T11:46:24.591Z,0.20
2022-12-18T11:48:55.792Z,0.20
2022-12-18T11:51:37.499Z,0.20
2022-12-18T11:54:14.786Z,0.30
2022-12-18T11:56:52.436Z,0.30
2022-12-18T11:59:43.459Z,0.30
2022-12-18T12:02:29.260Z,0.40
2022-12-18T12:05:15.732Z,2.40
2022-12-18T12:07:48.855Z,2.10
2022-12-18T12:10:43.402Z,0.40
2022-12-18T12:13:41.689Z,0.50
2022-12-18T12:16:22.096Z,0.50
2022-12-18T12:19:35.222Z,0.60
2022-12-18T12:22:10.908Z,0.60
2022-12-18T12:24:40.540Z,0.70
2022-12-18T12:27:23.829Z,0.70
2022-12-18T12:30:01.858Z,0.70
2022-12-18T12:32:40.589Z,0.70
2022-12-18T12:35:37.195Z,0.80
2022-12-18T12:38:25.162Z,0.80
2022-12-18T12:41:37.748Z,0.80
2022-12-18T12:44:06.972Z,2.20
2022-12-18T12:46:38.071Z,0.90
2022-12-18T12:49:05.320Z,0.90
2022-12-18T12:51:36.962Z,0.90
2022-12-18T12:54:07.256Z,0.90
2022-12-18T12:56:59.908Z,-0.30
2022-12-18T12:59:45.516Z,0.90
2022-12-18T13:02:24.389Z,0.90
2022-12-18T13:05:25.633Z,1.00
2022-12-18T13:08:03.510Z,1.00
2022-12-18T13:10:40.179Z,1.00
2022-12-18T13:13:18.677Z,1.10
2022-12-18T13:16:07.614Z,1.00
2022-12-18T13:18:34.584Z,1.00
2022-12-18T13:21:03.567Z,1.00
2022-12-18T13:23:37.520Z,1.00
2022-12-18T13:26:07.357Z,1.00
2022-12-18T13:28:34.514Z,1.10
2022-12-18T13:31:02.307Z,1.10
2022-12-18T13:33:56.328Z,1.10
2022-12-18T13:36:31.182Z,1.10
2022-12-18T13:39:23.292Z,1.10
2022-12-18T13:42:06.422Z,1.10
2022-12-18T13:44:40.999Z,1.10
2022-12-18T13:47:36.102Z,1.10
2022-12-18T13:50:10.478Z,1.00
2022-12-18T13:52:38.575Z,1.00
2022-12-18T13:55:08.176Z,1.00
2022-12-18T13:57:41.839Z,0.90
2022-12-18T14:00:29.424Z,0.90
2022-12-18T14:02:58.038Z,0.90
2022-12-18T14:05:27.759Z,0.90
2022-12-18T14:07:55.134Z,0.90
2022-12-18T14:13:10.791Z,3.60
2022-12-18T14:15:43.482Z,0.80
2022-12-18T14:18:24.124Z,0.80
2022-12-18T14:20:55.913Z,0.80
2022-12-18T14:23:42.684Z,0.80
2022-12-18T14:26:30.532Z,0.80
2022-12-18T14:29:02.343Z,0.80
2022-12-18T14:31:30.585Z,0.80
2022-12-18T14:33:57.504Z,0.80
2022-12-18T14:36:26.102Z,0.80
2022-12-18T14:38:59.625Z,0.70
2022-12-18T14:41:26.769Z,0.70
2022-12-18T14:43:54.832Z,-0.30
2022-12-18T14:46:34.168Z,0.70
2022-12-18T14:49:28.340Z,0.70
2022-12-18T14:51:56.904Z,0.80
2022-12-18T14:54:24.719Z,0.80
2022-12-18T14:57:11.373Z,0.80
2022-12-18T14:59:39.457Z,0.80
2022-12-18T15:02:26.708Z,0.90
2022-12-18T15:05:17.205Z,0.80
2022-12-18T15:07:45.951Z,0.90
2022-12-18T15:10:19.970Z,0.80
2022-12-18T15:12:48.179Z,0.80
2022-12-18T15:15:33.988Z,0.80
2022-12-18T15:18:11.446Z,0.80
2022-12-18T15:20:52.318Z,0.80
2022-12-18T15:23:36.603Z,-1.30
2022-12-18T15:26:06.110Z,0.80
2022-12-18T15:28:36.023Z,0.80
2022-12-18T15:31:07.965Z,0.70
2022-12-18T15:33:36.957Z,0.70
2022-12-18T15:36:14.254Z,0.60
2022-12-18T15:38:41.107Z,0.60
2022-12-18T15:41:14.548Z,0.60
2022-12-18T15:43:42.398Z,0.50
2022-12-18T15:46:22.839Z,0.50
2022-12-18T15:48:51.264Z,0.40
2022-12-18T15:51:26.908Z,1.90
2022-12-18T15:53:55.524Z,0.30
2022-12-18T15:56:41.470Z,0.30
2022-12-18T15:59:15.738Z,0.20
2022-12-18T16:01:43.213Z,0.10
2022-12-18T16:04:14.094Z,0.10
2022-12-18T16:07:12.749Z,0.00
2022-12-18T16:09:28.097Z,0.00
2022-12-18T16:11:54.872Z,0.00
2022-12-18T16:14:29.495Z,0.00
2022-12-18T16:17:03.596Z,0.00
2022-12-18T16:19:30.632Z,-0.10
2022-12-18T16:21:58.227Z,-0.10
2022-12-18T16:24:28.659Z,-0.10
2022-12-18T16:26:56.242Z,2.60
2022-12-18T16:29:27.928Z,2.00
2022-12-18T16:31:58.882Z,-0.10
2022-12-18T16:34:29.030Z,-0.10
2022-12-18T16:37:01.715Z,-0.10
2022-12-18T16:39:32.922Z,-0.10
2022-12-18T16:42:00.019Z,-0.10
2022-12-18T16:44:28.790Z,1.10
2022-12-18T16:46:55.662Z,-0.10
2022-12-18T16:49:22.677Z,1.60
2022-12-18T16:51:49.473Z,0.00
2022-12-18T16:54:19.171Z,0.10
2022-12-18T16:56:49.848Z,0.10
2022-12-18T16:59:16.674Z,0.10
2022-12-18T17:01:44.806Z,0.00
2022-12-18T17:04:11.868Z,0.10
2022-12-18T17:06:42.299Z,0.10
2022-12-18T17:09:14.920Z,0.10
2022-12-18T17:11:41.891Z,0.00
2022-12-18T17:14:10.392Z,0.00
2022-12-18T17:16:37.336Z,0.10
2022-12-18T17:19:05.559Z,0.00
2022-12-18T17:21:32.439Z,0.10
2022-12-18T17:24:02.693Z,0.00
2022-12-18T17:26:29.683Z,0.00
2022-12-18T17:28:57.271Z,0.00
2022-12-18T17:31:26.635Z,0.10
2022-12-18T17:33:53.790Z,0.00
2022-12-18T17:36:21.969Z,0.00
2022-12-18T17:38:53.195Z,0.00
2022-12-18T17:41:20.024Z,1.60
2022-12-18T17:43:57.792Z,0.10
2022-12-18T17:46:25.868Z,0.10
2022-12-18T17:48:55.000Z,0.10
2022-12-18T17:51:21.804Z,0.10
2022-12-18T17:53:48.692Z,0.10
2022-12-18T17:56:16.889Z,-1.10
2022-12-18T17:58:43.867Z,0.20
2022-12-18T18:01:13.061Z,0.30
2022-12-18T18:03:42.574Z,0.30
2022-12-18T18:06:09.786Z,0.30
2022-12-18T18:08:37.110Z,0.40
2022-12-18T18:11:24.475Z,0.40
2022-12-18T18:14:04.546Z,0.60
2022-12-18T18:16:36.405Z,0.40
2022-12-18T18:19:06.000Z,0.30
2022-12-18T18:21:33.458Z,0.30
2022-12-18T18:24:03.733Z,-1.80
2022-12-18T18:26:31.655Z,0.20
2022-12-18T18:28:59.680Z,0.20
2022-12-18T18:31:28.940Z,0.20
2022-12-18T18:33:55.976Z,0.10
2022-12-18T18:36:23.368Z,0.10
2022-12-18T18:38:50.905Z,0.10
2022-12-18T18:41:18.197Z,0.00
2022-12-18T18:43:45.233Z,0.10
2022-12-18T18:46:13.509Z,0.10
2022-12-18T18:48:42.370Z,0.10
2022-12-18T18:51:14.675Z,0.20
2022-12-18T18:53:50.063Z,0.20
2022-12-18T18:59:05.810Z,0.20
2022-12-18T19:01:33.051Z,0.20
2022-12-18T19:04:03.160Z,0.10
2022-12-18T19:06:30.036Z,0.10
2022-12-18T19:08:58.536Z,0.10
2022-12-18T19:11:44.379Z,0.10
2022-12-18T19:14:12.422Z,0.20
2022-12-18T19:16:39.338Z,0.20
2022-12-18T19:19:06.681Z,0.20
2022-12-18T19:21:34.744Z,0.30
2022-12-18T19:24:02.497Z,1.90
2022-12-18T19:26:29.564Z,3.50
2022-12-18T19:29:03.738Z,0.30
2022-12-18T19:31:35.221Z,0.30
2022-12-18T19:34:03.075Z,0.30
2022-12-18T19:36:30.172Z,0.30
2022-12-18T19:38:58.853Z,0.40
2022-12-18T19:41:25.864Z,0.40
2022-12-18T19:43:55.952Z,0.40
2022-12-18T19:46:23.814Z,0.50
2022-12-18T19:48:50.723Z,0.50
2022-12-18T19:51:19.747Z,0.40
2022-12-18T19:53:46.762Z,0.40
2022-12-18T19:56:15.529Z,0.30
2022-12-18T19:58:42.859Z,0.40
2022-12-18T20:01:09.969Z,0.40
2022-12-18T20:03:39.164Z,0.40
2022-12-18T20:06:32.330Z,0.40
2022-12-18T20:09:01.530Z,0.40
2022-12-18T20:11:29.736Z,1.50
2022-12-18T20:13:57.087Z,0.40
2022-12-18T20:16:24.187Z,0.40
2022-12-18T20:18:51.398Z,0.40
2022-12-18T20:21:19.150Z,2.50
2022-12-18T20:23:46.250Z,0.40
2022-12-18T20:26:13.055Z,0.40
2022-12-18T20:28:40.680Z,0.40
2022-12-18T20:31:13.755Z,0.40
2022-12-18T20:33:41.440Z,0.40
2022-12-18T20:40:34.559Z,0.50
2022-12-18T20:43:04.662Z,0.50
2022-12-18T20:45:31.628Z,2.00
2022-12-18T20:47:59.513Z,0.50
2022-12-18T20:50:26.534Z,0.50
2022-12-18T20:52:53.383Z,0.50
2022-12-18T20:55:20.313Z,0.50
2022-12-18T20:57:47.307Z,2.00
2022-12-18T21:00:15.602Z,0.50
2022-12-18T21:02:47.103Z,0.50
2022-12-18T21:05:14.013Z,0.50
2022-12-18T21:07:40.904Z,0.50
2022-12-18T21:10:58.831Z,0.50
2022-12-18T21:13:26.484Z,0.50
2022-12-18T21:15:55.502Z,0.60
2022-12-18T21:18:22.364Z,0.50
2022-12-18T21:20:49.272Z,0.60
2022-12-18T21:23:17.060Z,0.50
2022-12-18T21:25:45.663Z,0.60
2022-12-18T21:28:13.833Z,0.60
2022-12-18T21:30:40.899Z,0.60
2022-12-18T21:33:07.748Z,0.60
2022-12-18T21:35:34.565Z,0.60
2022-12-18T21:38:01.773Z,0.60
2022-12-18T21:40:31.092Z,0.70
2022-12-18T21:43:17.878Z,0.70
2022-12-18T21:45:44.784Z,0.70
2022-12-18T21:48:12.250Z,0.70
2022-12-18T21:50:39.048Z,0.70
2022-12-18T21:53:05.815Z,0.70
2022-12-18T21:55:32.612Z,0.70
2022-12-18T21:57:59.474Z,0.80
2022-12-18T22:00:26.338Z,0.80
2022-12-18T22:03:03.313Z,2.90
2022-12-18T22:05:40.644Z,3.40
2022-12-18T22:08:07.878Z,1.10
2022-12-18T22:10:35.130Z,1.10
2022-12-18T22:13:02.242Z,1.10
2022-12-18T22:15:29.081Z,1.20
2022-12-18T22:18:00.067Z,1.10
2022-12-18T22:20:27.782Z,1.10
2022-12-18T22:22:56.178Z,1.00
2022-12-18T22:25:22.986Z,0.90
2022-12-18T22:28:08.475Z,0.90
2022-12-18T22:30:35.698Z,0.90
2022-12-18T22:33:03.577Z,0.90
2022-12-18T22:35:30.524Z,0.80
2022-12-18T22:37:59.652Z,0.80
2022-12-18T22:40:27.054Z,0.70
2022-12-18T22:42:54.460Z,0.80
2022-12-18T22:45:21.270Z,0.70
2022-12-18T22:47:48.071Z,0.70
2022-12-18T22:50:14.945Z,0.80
2022-12-18T22:52:41.769Z,3.10
2022-12-18T22:55:08.749Z,0.80
2022-12-18T22:57:35.565Z,0.80
2022-12-18T23:00:04.632Z,2.10
2022-12-18T23:02:31.622Z,3.60
2022-12-18T23:04:58.492Z,1.00
2022-12-18T23:07:25.338Z,1.10
2022-12-18T23:09:59.571Z,1.20
2022-12-18T23:12:27.679Z,1.20
2022-12-18T23:14:54.618Z,1.20
2022-12-18T23:17:21.454Z,1.10
2022-12-18T23:19:49.428Z,0.90
2022-12-18T23:22:17.170Z,1.00
2022-12-18T23:24:44.178Z,0.90
2022-12-18T23:27:11.879Z,0.90
2022-12-18T23:29:39.637Z,0.90
2022-12-18T23:32:06.666Z,0.90
2022-12-18T23:34:33.466Z,0.90
2022-12-18T23:37:01.152Z,0.90
2022-12-18T23:39:29.777Z,0.90
2022-12-18T23:42:00.067Z,0.90
2022-12-18T23:44:27.122Z,0.90
2022-12-18T23:46:54.125Z,0.90
2022-12-18T23:49:20.974Z,0.90
2022-12-18T23:51:48.141Z,1.40
2022-12-18T23:54:14.999Z,0.90
2022-12-18T23:56:41.880Z,1.00
2022-12-18T23:59:08.792Z,1.00
